createdAt,value
2022-07-31T00:01:41.503Z,90.60
2022-07-31T00:04:10.712Z,90.70
2022-07-31T00:06:42.295Z,90.60
2022-07-31T00:09:45.415Z,90.60
2022-07-31T00:12:01.472Z,90.60
2022-07-31T00:14:30.937Z,90.50
2022-07-31T00:17:00.837Z,90.40
2022-07-31T00:19:30.330Z,90.50
2022-07-31T00:21:59.734Z,90.50
2022-07-31T00:24:30.427Z,90.60
2022-07-31T00:27:00.223Z,90.50
2022-07-31T00:29:29.699Z,90.50
2022-07-31T00:31:59.287Z,90.60
2022-07-31T00:34:28.611Z,90.50
2022-07-31T00:36:57.925Z,90.50
2022-07-31T00:39:27.791Z,90.80
2022-07-31T00:41:57.252Z,90.30
2022-07-31T00:44:27.055Z,90.50
2022-07-31T00:46:56.385Z,90.50
2022-07-31T00:49:25.826Z,90.50
2022-07-31T00:52:07.613Z,90.40
2022-07-31T00:54:37.423Z,90.20
2022-07-31T00:57:07.676Z,90.20
2022-07-31T00:59:37.282Z,90.20
2022-07-31T01:02:06.734Z,90.10
2022-07-31T01:04:36.169Z,90.10
2022-07-31T01:07:06.567Z,90.00
2022-07-31T01:09:36.069Z,90.00
2022-07-31T01:12:11.558Z,90.40
2022-07-31T01:14:47.648Z,89.90
2022-07-31T01:17:19.101Z,89.80
2022-07-31T01:19:50.187Z,89.60
2022-07-31T01:22:37.702Z,89.30
2022-07-31T01:25:18.741Z,89.20
2022-07-31T01:27:56.811Z,89.00
2022-07-31T01:30:31.834Z,88.90
2022-07-31T01:33:09.864Z,88.80
2022-07-31T01:35:54.166Z,88.70
2022-07-31T01:38:31.283Z,88.80
2022-07-31T01:41:03.171Z,88.60
2022-07-31T01:43:42.271Z,88.40
2022-07-31T01:46:16.492Z,88.30
2022-07-31T01:48:46.397Z,88.20
2022-07-31T01:51:16.462Z,88.10
2022-07-31T01:53:49.711Z,88.10
2022-07-31T01:56:22.440Z,88.00
2022-07-31T01:58:52.451Z,87.70
2022-07-31T02:01:26.999Z,87.60
2022-07-31T02:04:00.703Z,87.30
2022-07-31T02:06:30.967Z,87.10
2022-07-31T02:09:02.496Z,87.00
2022-07-31T02:11:32.230Z,86.90
2022-07-31T02:14:02.834Z,86.80
2022-07-31T02:16:33.407Z,86.70
2022-07-31T02:19:04.453Z,86.40
2022-07-31T02:21:33.898Z,86.20
2022-07-31T02:24:03.134Z,85.90
2022-07-31T02:26:33.459Z,85.70
2022-07-31T02:29:04.088Z,85.70
2022-07-31T02:31:36.489Z,85.60
2022-07-31T02:34:05.694Z,85.60
2022-07-31T02:36:36.317Z,85.60
2022-07-31T02:39:07.113Z,85.50
2022-07-31T02:41:38.104Z,85.50
2022-07-31T02:44:07.628Z,85.50
2022-07-31T02:46:37.468Z,85.60
2022-07-31T02:49:07.790Z,85.30
2022-07-31T02:51:38.793Z,85.10
2022-07-31T02:54:12.106Z,85.10
2022-07-31T02:56:42.489Z,85.00
2022-07-31T02:59:11.637Z,85.00
2022-07-31T03:01:40.767Z,85.00
2022-07-31T03:04:10.085Z,84.90
2022-07-31T03:06:39.265Z,84.90
2022-07-31T03:09:08.739Z,84.70
2022-07-31T03:11:38.501Z,84.60
2022-07-31T03:14:09.781Z,84.20
2022-07-31T03:16:40.534Z,84.20
2022-07-31T03:19:11.337Z,83.80
2022-07-31T03:21:41.574Z,83.80
2022-07-31T03:24:13.033Z,83.40
2022-07-31T03:26:42.499Z,83.30
2022-07-31T03:29:42.695Z,82.70
2022-07-31T03:32:02.766Z,82.40
2022-07-31T03:34:32.296Z,82.30
2022-07-31T03:37:01.622Z,82.00
2022-07-31T03:39:35.267Z,82.10
2022-07-31T03:42:04.825Z,82.20
2022-07-31T03:44:35.870Z,80.70
2022-07-31T03:47:05.791Z,81.70
2022-07-31T03:49:35.684Z,81.20
2022-07-31T03:52:09.882Z,81.30
2022-07-31T03:54:41.460Z,81.10
2022-07-31T03:57:11.425Z,81.00
2022-07-31T03:59:48.443Z,80.90
2022-07-31T04:02:19.114Z,80.70
2022-07-31T04:04:48.670Z,80.40
2022-07-31T04:07:18.258Z,80.10
2022-07-31T04:09:47.507Z,80.10
2022-07-31T04:12:16.732Z,80.40
2022-07-31T04:14:46.054Z,80.60
2022-07-31T04:17:15.232Z,80.50
2022-07-31T04:19:44.330Z,80.60
2022-07-31T04:22:13.496Z,80.40
2022-07-31T04:24:42.558Z,80.20
2022-07-31T04:27:12.967Z,80.50
2022-07-31T04:29:42.279Z,80.70
2022-07-31T04:32:11.413Z,80.30
2022-07-31T04:34:40.848Z,80.30
2022-07-31T04:37:10.775Z,80.30
2022-07-31T04:39:39.905Z,80.10
2022-07-31T04:42:11.462Z,80.10
2022-07-31T04:44:41.000Z,80.30
2022-07-31T04:47:10.125Z,80.10
2022-07-31T04:49:39.524Z,80.10
2022-07-31T04:52:09.943Z,80.00
2022-07-31T04:54:40.260Z,80.00
2022-07-31T04:57:09.380Z,80.10
2022-07-31T04:59:57.789Z,80.10
2022-07-31T05:02:27.745Z,80.20
2022-07-31T05:04:57.591Z,80.00
2022-07-31T05:07:28.995Z,80.00
2022-07-31T05:09:59.736Z,80.00
2022-07-31T05:12:29.128Z,79.80
2022-07-31T05:15:25.919Z,79.40
2022-07-31T05:17:55.259Z,78.80
2022-07-31T05:20:25.965Z,79.30
2022-07-31T05:22:55.327Z,79.30
2022-07-31T05:25:24.661Z,79.10
2022-07-31T05:27:54.676Z,78.40
2022-07-31T05:30:30.088Z,78.20
2022-07-31T05:33:00.185Z,78.10
2022-07-31T05:35:29.558Z,77.70
2022-07-31T05:37:58.926Z,77.70
2022-07-31T05:40:28.380Z,78.30
2022-07-31T05:42:57.771Z,77.00
2022-07-31T05:45:27.239Z,76.70
2022-07-31T05:47:56.625Z,76.40
2022-07-31T05:50:26.054Z,76.00
2022-07-31T05:52:56.296Z,76.30
2022-07-31T05:55:25.713Z,75.20
2022-07-31T05:57:55.249Z,74.40
2022-07-31T06:00:24.692Z,74.30
2022-07-31T06:02:54.217Z,74.10
2022-07-31T06:05:23.807Z,74.20
2022-07-31T06:07:53.471Z,73.70
2022-07-31T06:10:24.430Z,73.70
2022-07-31T06:12:53.606Z,74.10
2022-07-31T06:15:23.022Z,74.60
2022-07-31T06:17:52.213Z,74.60
2022-07-31T06:20:21.356Z,74.60
2022-07-31T06:22:50.518Z,74.30
2022-07-31T06:25:19.665Z,74.30
2022-07-31T06:27:52.052Z,74.10
2022-07-31T06:30:25.858Z,74.10
2022-07-31T06:32:55.054Z,73.90
2022-07-31T06:35:24.150Z,74.00
2022-07-31T06:37:53.218Z,74.30
2022-07-31T06:40:22.324Z,74.30
2022-07-31T06:42:51.538Z,74.50
2022-07-31T06:45:41.616Z,75.10
2022-07-31T06:48:09.890Z,75.40
2022-07-31T06:50:39.064Z,75.60
2022-07-31T06:53:08.206Z,75.90
2022-07-31T06:55:37.287Z,76.10
2022-07-31T06:58:13.921Z,76.50
2022-07-31T07:00:43.093Z,77.00
2022-07-31T07:03:12.083Z,77.40
2022-07-31T07:05:45.089Z,77.40
2022-07-31T07:08:14.519Z,77.70
2022-07-31T07:10:43.749Z,77.50
2022-07-31T07:13:12.783Z,77.10
2022-07-31T08:23:22.407Z,92.90
2022-07-31T08:26:31.791Z,91.90
2022-07-31T08:47:54.361Z,91.50
